Aérodrome :
LOGIN :

S'inscrire | Disclaimer

   EN    FR    IT 

 










Légende :    VFR   VFR Marginal   IFR   IFR Intensif   IFR Très Intensif
Visi : 
Plafond : 
>= 8 km
>= 3000ft
5 à 8 km
1000 à 3000 ft
1500m à 5 km
500 à 1000 ft
800 à 1500m
200 à 500 ft
< 800m
< 200 ft
Symboles :   Orages  Brouillard  Fortes neiges  Fortes précipitations  Vent > 20 kt
SIGMETs :   Divers  Orages  Givrage  Turbulence  Onde Orograph.  Cendres Volcan.







- Altitude de l'aérodrome : 219 ft
- Code IATA : DNR
- Voir les cartes d'approche


LFRD - Dinard

DERNIER METAR :
  • 261130Z AUTO 01010KT 9000 NSC 24/20 Q1020 TEMPO 04015G25KT

METARs EXPIRÉS :
  • 261100Z AUTO 05009KT 9000 NSC 25/20 Q1020 TEMPO 04015G25KT
  • 261030Z AUTO 05012KT 8000 NSC 23/19 Q1020 TEMPO 04015G25KT
  • 261000Z AUTO 01007KT 8000 NSC 21/18 Q1021 TEMPO 04015G25KT
  • 260930Z AUTO 36003KT 270V040 9999 ///TCU 22/19 Q1020 BECMG 04014KT NSC
  • 260900Z AUTO 07008KT 030V100 8000 ///TCU 20/18 Q1021 BECMG NSC

TAF TAF LFRD
Valide du 26 à 12h jusqu'au 27 à 12h UTC


261100Z 2612/2712 05010KT 8000 NSC
TEMPO 2615/2621 04015G25KT
PROB30
TEMPO 2619/2706 BKN007
ATIS : +33 2 99 16 81 50
Pas de NOTAMs connus pour ce terrain.



MET'MAP, la Météo Aéronautique d'un coup d'oeil ! - Copyright ORBIFLY Décembre 2007 - Disclaimer

ORBIFLY MET'MAP TEAM :

Programmation & Développement : Alexandra Zaïnal
Conception & Développement : Baudouin d'Aumeries
Co-Programmation & Développement : Marc-Olivier Méhu
Soutien technique & logistique : Manuel Goepfert

Contact : metmap@orbifly.com




SOURCES & CREDITS :

   NOAA